createdAt,value
2016-09-04T00:00:35.290Z,82.14
2016-09-04T00:01:35.291Z,81.95
2016-09-04T00:02:35.284Z,82.04
2016-09-04T00:03:35.282Z,82.14
2016-09-04T00:04:35.284Z,81.95
2016-09-04T00:05:35.273Z,81.95
2016-09-04T00:06:35.277Z,82.23
2016-09-04T00:07:35.283Z,82.14
2016-09-04T00:08:35.265Z,82.23
2016-09-04T00:09:35.270Z,82.42
2016-09-04T00:10:35.266Z,81.95
2016-09-04T00:11:35.270Z,82.14
2016-09-04T00:12:35.267Z,82.04
2016-09-04T00:13:35.258Z,82.32
2016-09-04T00:14:35.254Z,82.38
2016-09-04T00:15:35.943Z,82.57
2016-09-04T00:16:35.245Z,82.76
2016-09-04T00:17:35.247Z,82.67
2016-09-04T00:18:35.239Z,82.76
2016-09-04T00:19:35.237Z,82.96
2016-09-04T00:20:35.246Z,82.57
2016-09-04T00:21:35.242Z,83.05
2016-09-04T00:22:35.238Z,82.96
2016-09-04T00:23:35.232Z,82.96
2016-09-04T00:24:35.223Z,83.15
2016-09-04T00:25:35.236Z,82.86
2016-09-04T00:26:35.219Z,82.96
2016-09-04T00:27:35.224Z,82.86
2016-09-04T00:28:35.237Z,82.76
2016-09-04T00:29:35.214Z,83.15
2016-09-04T00:30:35.207Z,83.34
2016-09-04T00:31:35.204Z,82.96
2016-09-04T00:32:35.210Z,83.34
2016-09-04T00:34:35.211Z,82.76
2016-09-04T00:35:36.055Z,83.25
2016-09-04T00:36:35.836Z,83.25
2016-09-04T00:37:35.189Z,83.25
2016-09-04T00:38:35.840Z,83.39
2016-09-04T00:39:35.179Z,83.92
2016-09-04T00:40:35.194Z,83.78
2016-09-04T00:41:35.222Z,83.78
2016-09-04T00:42:35.180Z,83.97
2016-09-04T00:43:36.376Z,83.87
2016-09-04T00:44:36.562Z,83.97
2016-09-04T00:45:35.166Z,83.78
2016-09-04T00:46:35.209Z,83.97
2016-09-04T00:47:35.155Z,83.97
2016-09-04T00:48:35.547Z,83.97
2016-09-04T00:49:35.365Z,84.16
2016-09-04T00:50:35.150Z,84.16
2016-09-04T00:51:35.152Z,83.59
2016-09-04T00:52:35.154Z,84.16
2016-09-04T00:53:35.138Z,84.64
2016-09-04T00:54:35.141Z,84.45
2016-09-04T00:55:35.139Z,84.35
2016-09-04T00:56:35.132Z,84.35
2016-09-04T00:57:35.140Z,84.74
2016-09-04T00:58:35.119Z,84.92
2016-09-04T00:59:35.810Z,84.45
2016-09-04T01:00:35.122Z,84.55
2016-09-04T01:01:35.228Z,85.02
2016-09-04T01:02:35.556Z,85.21
2016-09-04T01:03:35.419Z,84.74
2016-09-04T01:04:35.102Z,85.02
2016-09-04T01:05:35.465Z,85.31
2016-09-04T01:06:35.095Z,84.83
2016-09-04T01:07:35.097Z,85.02
2016-09-04T01:08:35.086Z,84.55
2016-09-04T01:09:35.090Z,84.83
2016-09-04T01:10:35.347Z,84.92
2016-09-04T01:11:35.074Z,85.02
2016-09-04T01:12:35.086Z,85.31
2016-09-04T01:13:35.573Z,85.5
2016-09-04T01:14:35.075Z,85.31
2016-09-04T01:15:35.066Z,85.31
2016-09-04T01:16:35.063Z,85.41
2016-09-04T01:17:35.076Z,85.6
2016-09-04T01:18:35.057Z,85.69
2016-09-04T01:19:35.062Z,85.12
2016-09-04T01:20:35.048Z,85.12
2016-09-04T01:21:35.049Z,85.5
2016-09-04T01:22:35.043Z,85.5
2016-09-04T01:23:35.038Z,85.5
2016-09-04T01:24:35.039Z,85.41
2016-09-04T01:25:35.032Z,85.5
2016-09-04T01:26:35.028Z,85.98
2016-09-04T01:27:35.033Z,85.98
2016-09-04T01:28:35.031Z,85.31
2016-09-04T01:29:35.021Z,85.83
2016-09-04T01:30:35.026Z,85.79
2016-09-04T01:31:35.011Z,85.35
2016-09-04T01:32:35.014Z,85.6
2016-09-04T01:33:35.005Z,85.64
2016-09-04T01:34:35.021Z,85.83
2016-09-04T01:35:35.004Z,85.74
2016-09-04T01:36:35.001Z,85.64
2016-09-04T01:37:34.993Z,85.83
2016-09-04T01:38:35.006Z,85.64
2016-09-04T01:39:34.991Z,85.74
2016-09-04T01:40:34.987Z,85.35
2016-09-04T01:41:34.990Z,85.35
2016-09-04T01:42:34.983Z,85.35
2016-09-04T01:43:34.976Z,85.83
2016-09-04T01:44:34.972Z,85.64
2016-09-04T01:45:34.968Z,85.64
2016-09-04T01:46:34.965Z,85.93
2016-09-04T01:47:34.971Z,85.83
2016-09-04T01:48:34.970Z,85.39
2016-09-04T01:49:34.963Z,85.45
2016-09-04T01:50:34.960Z,85.39
2016-09-04T01:51:34.953Z,85.68
2016-09-04T01:53:34.945Z,85.68
2016-09-04T01:54:34.985Z,85.68
2016-09-04T01:55:34.954Z,85.39
2016-09-04T01:56:35.680Z,85.58
2016-09-04T01:57:34.932Z,85.39
2016-09-04T01:58:34.935Z,85.21
2016-09-04T01:59:34.937Z,84.91
2016-09-04T02:00:34.929Z,84.63
2016-09-04T02:01:36.802Z,84.91
2016-09-04T02:02:35.270Z,84.91
2016-09-04T02:03:35.760Z,85.11
2016-09-04T02:04:35.807Z,85.01
2016-09-04T02:05:34.913Z,85.3
2016-09-04T02:06:35.413Z,84.63
2016-09-04T02:07:34.907Z,84.44
2016-09-04T02:08:35.043Z,85.01
2016-09-04T02:09:34.909Z,85.05
2016-09-04T02:10:34.908Z,84.58
2016-09-04T02:11:34.902Z,84.91
2016-09-04T02:12:34.894Z,84.72
2016-09-04T02:13:34.891Z,84.72
2016-09-04T02:14:34.883Z,84.95
2016-09-04T02:15:34.899Z,84.82
2016-09-04T02:16:34.892Z,84.86
2016-09-04T02:17:34.878Z,84.95
2016-09-04T02:18:34.886Z,84.91
2016-09-04T02:19:34.981Z,85.05
2016-09-04T02:20:34.869Z,84.95
2016-09-04T02:21:34.864Z,84.44
2016-09-04T02:22:34.872Z,85.15
2016-09-04T02:23:34.868Z,84.95
2016-09-04T02:24:35.549Z,85.11
2016-09-04T02:25:34.850Z,85.05
2016-09-04T02:26:34.866Z,84.86
2016-09-04T02:27:34.897Z,85.15
2016-09-04T02:28:35.100Z,85.05
2016-09-04T02:29:35.203Z,84.95
2016-09-04T02:30:34.846Z,84.67
2016-09-04T02:31:34.842Z,84.77
2016-09-04T02:32:34.832Z,84.28
2016-09-04T02:33:34.836Z,84.48
2016-09-04T02:34:34.833Z,84.77
2016-09-04T02:35:34.830Z,84.19
2016-09-04T02:36:34.824Z,84.28
2016-09-04T02:37:34.824Z,84.19
2016-09-04T02:38:34.834Z,84.28
2016-09-04T02:39:34.816Z,83.81
2016-09-04T02:40:34.825Z,83.91
2016-09-04T02:41:34.816Z,84.09
2016-09-04T02:42:34.819Z,83.81
2016-09-04T02:43:34.808Z,84
2016-09-04T02:44:34.801Z,83.91
2016-09-04T02:45:34.802Z,84.09
2016-09-04T02:46:34.794Z,83.71
2016-09-04T02:47:34.805Z,83.42
2016-09-04T02:48:34.799Z,83.23
2016-09-04T02:49:34.806Z,83.14
2016-09-04T02:50:34.790Z,82.94
2016-09-04T02:51:34.787Z,82.98
2016-09-04T02:52:34.800Z,83.42
2016-09-04T02:53:34.791Z,83.18
2016-09-04T02:54:34.781Z,83.33
2016-09-04T02:55:34.790Z,83.23
2016-09-04T02:56:34.789Z,82.85
2016-09-04T02:57:34.770Z,82.94
2016-09-04T02:58:34.771Z,83.23
2016-09-04T02:59:34.767Z,83.14
2016-09-04T03:00:34.774Z,83.04
2016-09-04T03:01:34.766Z,83.33
2016-09-04T03:02:34.770Z,83.42
2016-09-04T03:03:34.769Z,83.61
2016-09-04T03:04:34.763Z,83.33
2016-09-04T03:05:34.753Z,83.81
2016-09-04T03:06:34.745Z,83.91
2016-09-04T03:07:34.755Z,83.91
2016-09-04T03:08:34.752Z,83.61
2016-09-04T03:09:34.741Z,83.33
2016-09-04T03:10:35.453Z,83.81
2016-09-04T03:11:35.913Z,83.91
2016-09-04T03:12:34.737Z,83.91
2016-09-04T03:13:34.732Z,83.71
2016-09-04T03:14:35.457Z,84.19
2016-09-04T03:15:34.728Z,84.48
2016-09-04T03:16:34.728Z,84.19
2016-09-04T03:17:34.720Z,84
2016-09-04T03:18:34.727Z,84.09
2016-09-04T03:19:35.206Z,84.19
2016-09-04T03:20:34.711Z,83.81
2016-09-04T03:21:34.710Z,84.09
2016-09-04T03:22:34.982Z,84.48
2016-09-04T03:23:34.704Z,84.28
2016-09-04T03:24:35.079Z,84.58
2016-09-04T03:25:34.697Z,84.38
2016-09-04T03:26:34.706Z,84.28
2016-09-04T03:27:34.698Z,84.38
2016-09-04T03:28:34.710Z,84.28
2016-09-04T03:29:34.688Z,83.71
2016-09-04T03:30:34.682Z,84.58
2016-09-04T03:31:34.685Z,84.38
2016-09-04T03:32:34.679Z,84.38
2016-09-04T03:33:34.687Z,84.28
2016-09-04T03:34:34.673Z,84.09
2016-09-04T03:35:34.677Z,84.38
2016-09-04T03:36:35.024Z,84.19
2016-09-04T03:37:34.680Z,84.19
2016-09-04T03:38:35.262Z,84.28
2016-09-04T03:39:34.680Z,84.28
2016-09-04T03:40:34.909Z,84.28
2016-09-04T03:41:34.669Z,84.58
2016-09-04T03:42:34.655Z,84.58
2016-09-04T03:43:34.652Z,84.28
2016-09-04T03:44:34.651Z,84.19
2016-09-04T03:45:35.395Z,84.38
2016-09-04T03:46:34.654Z,84.09
2016-09-04T03:47:49.907Z,84
2016-09-04T03:48:34.644Z,84.38
2016-09-04T03:49:34.644Z,84.19
2016-09-04T03:50:34.935Z,83.81
2016-09-04T03:51:34.627Z,83.71
2016-09-04T03:52:34.630Z,83.81
2016-09-04T03:53:34.634Z,84
2016-09-04T03:54:34.622Z,84.09
2016-09-04T03:55:34.624Z,83.23
2016-09-04T03:56:34.615Z,83.52
2016-09-04T03:57:34.618Z,83.23
2016-09-04T03:58:34.623Z,83.23
2016-09-04T03:59:34.612Z,82.94
2016-09-04T04:00:34.610Z,82.85
2016-09-04T04:01:34.611Z,83.04
2016-09-04T04:02:34.606Z,82.94
2016-09-04T04:03:34.603Z,83.14
2016-09-04T04:04:34.614Z,83.04
2016-09-04T04:05:34.594Z,83.04
2016-09-04T04:06:34.610Z,83.14
2016-09-04T04:07:34.596Z,83.61
2016-09-04T04:08:34.585Z,83.33
2016-09-04T04:09:34.584Z,83.04
2016-09-04T04:10:34.597Z,83.04
2016-09-04T04:11:34.588Z,82.75
2016-09-04T04:12:34.576Z,83.04
2016-09-04T04:13:34.584Z,82.94
2016-09-04T04:14:34.589Z,82.94
2016-09-04T04:15:34.576Z,83.04
2016-09-04T04:16:34.578Z,82.85
2016-09-04T04:17:34.567Z,82.65
2016-09-04T04:18:34.566Z,82.7
2016-09-04T04:19:34.559Z,82.56
2016-09-04T04:20:34.573Z,82.65
2016-09-04T04:21:34.550Z,82.56
2016-09-04T04:22:34.569Z,82.75
2016-09-04T04:23:35.249Z,82.56
2016-09-04T04:24:34.555Z,82.65
2016-09-04T04:25:34.543Z,82.75
2016-09-04T04:26:34.540Z,82.75
2016-09-04T04:27:34.557Z,82.85
2016-09-04T04:28:35.726Z,82.75
2016-09-04T04:29:34.533Z,82.75
2016-09-04T04:30:35.092Z,82.65
2016-09-04T04:31:35.417Z,82.65
2016-09-04T04:32:34.584Z,82.41
2016-09-04T04:33:34.538Z,82.75
2016-09-04T04:34:34.531Z,82.37
2016-09-04T04:35:34.522Z,82.65
2016-09-04T04:36:34.515Z,82.75
2016-09-04T04:37:34.514Z,82.56
2016-09-04T04:38:35.743Z,82.85
2016-09-04T04:39:34.505Z,82.27
2016-09-04T04:40:34.506Z,82.21
2016-09-04T04:41:34.501Z,82.31
2016-09-04T04:42:34.623Z,82.41
2016-09-04T04:43:34.496Z,82.65
2016-09-04T04:44:34.497Z,82.51
2016-09-04T04:45:34.509Z,82.03
2016-09-04T04:46:34.488Z,81.45
2016-09-04T04:47:34.541Z,81.64
2016-09-04T04:48:34.490Z,81.74
2016-09-04T04:49:34.497Z,81.64
2016-09-04T04:50:34.478Z,82.03
2016-09-04T04:51:34.496Z,81.93
2016-09-04T04:52:34.478Z,81.45
2016-09-04T04:53:34.484Z,81.54
2016-09-04T04:54:34.473Z,81.45
2016-09-04T04:55:34.472Z,81.64
2016-09-04T04:56:34.468Z,81.16
2016-09-04T04:57:34.569Z,81.16
2016-09-04T04:58:34.464Z,81.45
2016-09-04T04:59:34.476Z,81.16
2016-09-04T05:00:34.458Z,81.16
2016-09-04T05:01:34.464Z,81.07
2016-09-04T05:02:34.453Z,80.68
2016-09-04T05:03:34.465Z,80.87
2016-09-04T05:04:34.446Z,80.3
2016-09-04T05:05:34.443Z,80.2
2016-09-04T05:06:34.841Z,80.2
2016-09-04T05:07:34.992Z,80.4
2016-09-04T05:08:34.447Z,80.01
2016-09-04T05:09:35.128Z,79.91
2016-09-04T05:10:34.434Z,79.34
2016-09-04T05:11:34.435Z,79.38
2016-09-04T05:12:34.434Z,79.09
2016-09-04T05:13:34.444Z,78.57
2016-09-04T05:14:34.423Z,78.61
2016-09-04T05:15:34.428Z,78.61
2016-09-04T05:16:34.419Z,78.52
2016-09-04T05:17:34.415Z,78.52
2016-09-04T05:18:34.415Z,78.23
2016-09-04T05:19:34.416Z,78.23
2016-09-04T05:20:34.423Z,77.65
2016-09-04T05:21:34.414Z,77.75
2016-09-04T05:22:34.411Z,77.46
2016-09-04T05:23:34.404Z,77.94
2016-09-04T05:24:34.414Z,78.03
2016-09-04T05:25:34.403Z,77.56
2016-09-04T05:26:34.415Z,77.08
2016-09-04T05:27:34.393Z,77.46
2016-09-04T05:28:34.409Z,77.36
2016-09-04T05:29:34.398Z,77.46
2016-09-04T05:30:34.398Z,76.98
2016-09-04T05:31:34.387Z,76.88
2016-09-04T05:32:34.386Z,77.08
2016-09-04T05:33:34.394Z,76.79
2016-09-04T05:34:34.381Z,76.4
2016-09-04T05:35:34.400Z,76.31
2016-09-04T05:36:34.375Z,76.5
2016-09-04T05:37:34.373Z,76.54
2016-09-04T05:38:34.377Z,76.4
2016-09-04T05:39:34.373Z,76.15
2016-09-04T05:40:34.386Z,75.67
2016-09-04T05:41:34.378Z,76.06
2016-09-04T05:42:34.383Z,75.67
2016-09-04T05:43:34.367Z,75.57
2016-09-04T05:44:34.384Z,75.38
2016-09-04T05:45:34.364Z,75.48
2016-09-04T05:46:34.358Z,75.67
2016-09-04T05:47:34.366Z,75.29
2016-09-04T05:48:34.357Z,75
2016-09-04T05:49:34.756Z,75.2
2016-09-04T05:50:34.349Z,74.81
2016-09-04T05:51:34.363Z,75.29
2016-09-04T05:52:34.348Z,75.2
2016-09-04T05:53:34.361Z,74.9
2016-09-04T05:54:34.348Z,75.1
2016-09-04T05:55:35.801Z,74.9
2016-09-04T05:56:34.737Z,74.62
2016-09-04T05:57:34.355Z,74.43
2016-09-04T05:58:34.338Z,74.23
2016-09-04T05:59:35.187Z,74.33
2016-09-04T06:00:34.572Z,74.46
2016-09-04T06:01:34.331Z,74.27
2016-09-04T06:02:34.331Z,73.98
2016-09-04T06:03:34.333Z,74.27
2016-09-04T06:04:34.332Z,74.17
2016-09-04T06:05:34.340Z,73.79
2016-09-04T06:06:34.330Z,73.35
2016-09-04T06:07:34.344Z,72.96
2016-09-04T06:08:34.321Z,72.96
2016-09-04T06:09:34.328Z,72.38
2016-09-04T06:10:34.322Z,72.23
2016-09-04T06:11:34.321Z,71.65
2016-09-04T06:12:35.520Z,71.46
2016-09-04T06:13:35.120Z,70.92
2016-09-04T06:14:35.019Z,70.37
2016-09-04T06:15:34.723Z,69.6
2016-09-04T06:16:35.171Z,69.45
2016-09-04T06:17:34.517Z,68.32
2016-09-04T06:18:34.333Z,68.23
2016-09-04T06:19:34.321Z,67.2
2016-09-04T06:20:34.320Z,66.36
2016-09-04T06:21:34.674Z,66.27
2016-09-04T06:22:34.325Z,65.53
2016-09-04T06:23:34.333Z,64.89
2016-09-04T06:24:34.329Z,64.4
2016-09-04T06:25:34.328Z,64.21
2016-09-04T06:26:34.337Z,63.43
2016-09-04T06:27:34.492Z,63.37
2016-09-04T06:28:34.340Z,62.31
2016-09-04T06:29:34.341Z,62.24
2016-09-04T06:30:34.349Z,61.47
2016-09-04T06:31:34.363Z,60.24
2016-09-04T06:32:34.353Z,60.44
2016-09-04T06:33:34.356Z,59.59
2016-09-04T06:34:34.358Z,58.27
2016-09-04T06:35:34.361Z,58.37
2016-09-04T06:36:34.368Z,58.01
2016-09-04T06:37:34.388Z,57.23
2016-09-04T06:38:34.379Z,56.68
2016-09-04T06:39:34.396Z,56.32
2016-09-04T06:40:34.391Z,55.83
2016-09-04T06:41:34.397Z,55.44
2016-09-04T06:42:34.401Z,55.06
2016-09-04T06:43:34.410Z,54.67
2016-09-04T06:44:34.405Z,54.86
2016-09-04T06:45:34.431Z,54.28
2016-09-04T06:46:34.417Z,54.48
2016-09-04T06:47:34.521Z,54.35
2016-09-04T06:48:34.434Z,54.35
2016-09-04T06:49:34.466Z,54.74
2016-09-04T06:50:34.438Z,53.58
2016-09-04T06:51:34.458Z,53.49
2016-09-04T06:52:34.448Z,53.67
2016-09-04T06:53:34.475Z,53.29
2016-09-04T06:54:34.466Z,53.51
2016-09-04T06:55:34.463Z,53.61
2016-09-04T06:56:34.476Z,52.93
2016-09-04T06:57:34.489Z,52.64
2016-09-04T06:58:34.487Z,52.64
2016-09-04T06:59:34.494Z,52.28
2016-09-04T07:00:34.497Z,52.28
2016-09-04T07:01:34.515Z,51.91
2016-09-04T07:02:34.526Z,51.53
2016-09-04T07:03:34.513Z,50.96
2016-09-04T07:04:36.110Z,50.51
2016-09-04T07:05:35.252Z,49.73
2016-09-04T07:06:34.539Z,49.66
2016-09-04T07:07:34.547Z,49.27
2016-09-04T07:08:34.565Z,48.78
2016-09-04T07:09:34.560Z,48.49
2016-09-04T07:10:34.583Z,48.39
2016-09-04T07:11:34.575Z,48.2
2016-09-04T07:12:34.594Z,48.2
2016-09-04T07:13:36.761Z,48.2
2016-09-04T07:14:35.575Z,47.71
2016-09-04T07:15:34.973Z,47.71
2016-09-04T07:16:35.038Z,47.71
2016-09-04T07:17:35.084Z,47.81
2016-09-04T07:18:34.688Z,48
2016-09-04T07:19:34.628Z,47.98
2016-09-04T07:20:34.645Z,47.42
2016-09-04T07:21:34.654Z,47.23
2016-09-04T07:22:34.663Z,47.03
2016-09-04T07:23:34.658Z,47.23
2016-09-04T07:24:34.681Z,47.32
2016-09-04T07:25:34.677Z,46.74
2016-09-04T07:26:34.696Z,47.05
2016-09-04T07:27:34.684Z,47.05
2016-09-04T07:28:34.701Z,47.15
2016-09-04T07:29:34.703Z,46.77
2016-09-04T07:30:34.713Z,46.57
2016-09-04T07:31:34.719Z,46.77
2016-09-04T07:32:49.944Z,46.77
2016-09-04T07:33:34.725Z,46.37
2016-09-04T07:34:34.736Z,46.47
2016-09-04T07:35:34.759Z,45.98
2016-09-04T07:36:35.103Z,45.4
2016-09-04T07:37:34.775Z,45.4
2016-09-04T07:38:34.762Z,45.31
2016-09-04T07:39:34.784Z,45.4
2016-09-04T07:40:34.785Z,45.31
2016-09-04T07:41:34.788Z,45.11
2016-09-04T07:42:35.200Z,45.11
2016-09-04T07:43:35.004Z,45.01
2016-09-04T07:44:35.163Z,45.04
2016-09-04T07:45:34.824Z,44.53
2016-09-04T07:46:34.873Z,44.72
2016-09-04T07:47:34.877Z,44.72
2016-09-04T07:48:34.838Z,44.82
2016-09-04T07:49:34.844Z,44.43
2016-09-04T07:50:34.847Z,44.53
2016-09-04T07:51:34.878Z,44.62
2016-09-04T07:52:34.862Z,44.33
2016-09-04T07:53:34.886Z,44.43
2016-09-04T07:54:34.873Z,44.41
2016-09-04T07:55:34.886Z,44.7
2016-09-04T07:56:34.887Z,44.7
2016-09-04T07:57:34.895Z,44.89
2016-09-04T07:58:34.917Z,45.18
2016-09-04T07:59:34.905Z,44.97
2016-09-04T08:00:34.917Z,45.07
2016-09-04T08:01:34.921Z,45.07
2016-09-04T08:02:34.934Z,45.26
2016-09-04T08:03:34.934Z,45.24
2016-09-04T08:04:34.948Z,45.14
2016-09-04T08:05:34.942Z,45.43
2016-09-04T08:06:34.973Z,45.53
2016-09-04T08:07:34.953Z,45.53
2016-09-04T08:08:34.963Z,45.43
2016-09-04T08:09:34.981Z,45.43
2016-09-04T08:10:34.978Z,45.34
2016-09-04T08:11:34.985Z,45.53
2016-09-04T08:12:34.983Z,45.43
2016-09-04T08:13:35.702Z,45.43
2016-09-04T08:14:34.992Z,45.43
2016-09-04T08:15:35.009Z,45.43
2016-09-04T08:16:35.003Z,45.43
2016-09-04T08:17:35.008Z,45.53
2016-09-04T08:18:35.015Z,45.43
2016-09-04T08:19:35.022Z,45.43
2016-09-04T08:20:35.025Z,45.53
2016-09-04T08:21:35.036Z,45.53
2016-09-04T08:22:36.557Z,45.61
2016-09-04T08:23:36.525Z,45.41
2016-09-04T08:24:35.921Z,45.7
2016-09-04T08:25:36.061Z,45.8
2016-09-04T08:26:35.059Z,46.16
2016-09-04T08:27:35.662Z,46.16
2016-09-04T08:28:35.086Z,45.97
2016-09-04T08:29:35.090Z,45.87
2016-09-04T08:30:35.083Z,46.07
2016-09-04T08:31:35.082Z,45.97
2016-09-04T08:32:35.095Z,46.16
2016-09-04T08:33:36.466Z,45.97
2016-09-04T08:34:35.104Z,45.68
2016-09-04T08:35:35.105Z,45.89
2016-09-04T08:36:35.128Z,45.7
2016-09-04T08:37:35.120Z,45.61
2016-09-04T08:38:35.136Z,45.43
2016-09-04T08:39:35.134Z,45.24
2016-09-04T08:40:35.130Z,45.04
2016-09-04T08:41:35.135Z,44.85
2016-09-04T08:42:35.143Z,44.68
2016-09-04T08:43:35.156Z,44.38
2016-09-04T08:44:35.150Z,44.09
2016-09-04T08:45:35.155Z,43.92
2016-09-04T08:46:35.165Z,43.82
2016-09-04T08:47:35.286Z,43.82
2016-09-04T08:48:35.171Z,43.15
2016-09-04T08:49:35.296Z,42.85
2016-09-04T08:50:35.194Z,42.46
2016-09-04T08:51:35.202Z,42.18
2016-09-04T08:52:35.196Z,42.66
2016-09-04T08:53:35.219Z,42.46
2016-09-04T08:54:35.361Z,42.46
2016-09-04T08:55:35.216Z,42.18
2016-09-04T08:56:35.231Z,41.98
2016-09-04T08:57:35.237Z,42.46
2016-09-04T08:58:35.229Z,42.56
2016-09-04T08:59:50.414Z,42.27
2016-09-04T09:00:35.244Z,42.46
2016-09-04T09:01:35.856Z,42.18
2016-09-04T09:02:35.674Z,41.98
2016-09-04T09:03:35.278Z,41.78
2016-09-04T09:04:35.267Z,41.59
2016-09-04T09:05:35.273Z,41.98
2016-09-04T09:06:35.278Z,41.78
2016-09-04T09:07:35.303Z,41.86
2016-09-04T09:08:35.303Z,41.96
2016-09-04T09:09:35.295Z,42.05
2016-09-04T09:10:35.302Z,42.35
2016-09-04T09:11:35.307Z,42.15
2016-09-04T09:12:35.319Z,42.15
2016-09-04T09:13:35.318Z,42.23
2016-09-04T09:14:35.328Z,42.23
2016-09-04T09:15:35.334Z,42.43
2016-09-04T09:16:35.334Z,42.71
2016-09-04T09:17:35.343Z,42.61
2016-09-04T09:18:35.352Z,42.52
2016-09-04T09:19:35.352Z,42.81
2016-09-04T09:20:35.373Z,42.71
2016-09-04T09:21:35.361Z,42.89
2016-09-04T09:22:35.373Z,43.08
2016-09-04T09:23:35.370Z,43.57
2016-09-04T09:24:35.396Z,43.27
2016-09-04T09:25:35.382Z,43.47
2016-09-04T09:26:35.401Z,43.66
2016-09-04T09:27:35.397Z,43.84
2016-09-04T09:28:35.400Z,43.93
2016-09-04T09:29:35.409Z,43.93
2016-09-04T09:30:35.415Z,44.03
2016-09-04T09:31:35.416Z,44.03
2016-09-04T09:32:35.434Z,44.13
2016-09-04T09:33:35.422Z,44.23
2016-09-04T09:34:35.428Z,44.13
2016-09-04T09:35:35.435Z,44.42
2016-09-04T09:36:35.436Z,44.32
2016-09-04T09:37:35.460Z,44.34
2016-09-04T09:38:35.452Z,44.24
2016-09-04T09:39:35.452Z,44.34
2016-09-04T09:40:35.842Z,44.24
2016-09-04T09:41:35.702Z,44.42
2016-09-04T09:42:35.580Z,44.44
2016-09-04T09:43:36.159Z,44.51
2016-09-04T09:44:36.375Z,44.64
2016-09-04T09:45:36.293Z,44.44
2016-09-04T09:46:35.485Z,44.44
2016-09-04T09:47:35.489Z,44.61
2016-09-04T09:48:35.495Z,44.71
2016-09-04T09:49:38.181Z,44.61
2016-09-04T09:50:35.503Z,44.71
2016-09-04T09:51:37.331Z,44.9
2016-09-04T09:52:35.519Z,44.9
2016-09-04T09:53:35.837Z,45.1
2016-09-04T09:54:35.940Z,45
2016-09-04T09:55:35.544Z,45
2016-09-04T09:56:35.532Z,44.9
2016-09-04T09:57:35.535Z,45.2
2016-09-04T09:58:35.543Z,44.9
2016-09-04T09:59:35.550Z,45.1
2016-09-04T10:00:35.549Z,45.51
2016-09-04T10:01:35.561Z,45.39
2016-09-04T10:02:35.559Z,45.68
2016-09-04T10:03:35.564Z,45.68
2016-09-04T10:04:35.572Z,45.58
2016-09-04T10:05:35.573Z,45.99
2016-09-04T10:06:35.934Z,46.26
2016-09-04T10:07:35.951Z,46.45
2016-09-04T10:08:35.589Z,46.55
2016-09-04T10:09:35.609Z,46.94
2016-09-04T10:10:35.597Z,47.11
2016-09-04T10:11:35.608Z,47.79
2016-09-04T10:12:35.604Z,48.18
2016-09-04T10:13:35.619Z,49.15
2016-09-04T10:14:35.620Z,49.7
2016-09-04T10:16:35.628Z,51.04
2016-09-04T10:17:36.633Z,52.39
2016-09-04T10:18:35.692Z,53.07
2016-09-04T10:19:35.654Z,54.39
2016-09-04T10:20:35.640Z,55.17
2016-09-04T10:21:35.646Z,55.66
2016-09-04T10:22:36.351Z,56.5
2016-09-04T10:23:35.660Z,56.79
2016-09-04T10:24:35.655Z,57.56
2016-09-04T10:25:35.664Z,58.31
2016-09-04T10:26:35.661Z,59.18
2016-09-04T10:27:35.683Z,59.66
2016-09-04T10:28:35.672Z,59.47
2016-09-04T10:29:35.673Z,60.44
2016-09-04T10:30:35.674Z,60.31
2016-09-04T10:31:35.689Z,60.99
2016-09-04T10:32:35.686Z,61.47
2016-09-04T10:33:35.685Z,61.57
2016-09-04T10:34:35.685Z,62.21
2016-09-04T10:35:35.690Z,62.6
2016-09-04T10:36:35.708Z,62.98
2016-09-04T10:37:35.703Z,63.37
2016-09-04T10:38:35.709Z,64.14
2016-09-04T10:39:35.699Z,64.05
2016-09-04T10:40:35.714Z,64.43
2016-09-04T10:41:35.701Z,65.17
2016-09-04T10:42:35.708Z,65.66
2016-09-04T10:43:35.712Z,66.14
2016-09-04T10:44:35.713Z,66.33
2016-09-04T10:45:35.717Z,66.72
2016-09-04T10:46:35.719Z,67.11
2016-09-04T10:47:35.835Z,67.78
2016-09-04T10:48:35.730Z,67.69
2016-09-04T10:49:35.731Z,68.17
2016-09-04T10:50:35.721Z,68.4
2016-09-04T10:51:35.728Z,67.78
2016-09-04T10:52:35.733Z,68.26
2016-09-04T10:53:35.736Z,68.65
2016-09-04T10:54:35.744Z,68.94
2016-09-04T10:55:35.736Z,68.75
2016-09-04T10:56:35.766Z,68.55
2016-09-04T10:57:35.742Z,68.84
2016-09-04T10:58:35.753Z,69.23
2016-09-04T10:59:35.742Z,69.52
2016-09-04T11:00:35.750Z,69.23
2016-09-04T11:01:36.442Z,69.81
2016-09-04T11:02:35.758Z,70.58
2016-09-04T11:03:35.753Z,69.9
2016-09-04T11:04:35.753Z,70.68
2016-09-04T11:05:35.773Z,70.97
2016-09-04T11:06:35.752Z,71.8
2016-09-04T11:08:35.765Z,72.09
2016-09-04T11:09:36.763Z,72.73
2016-09-04T11:10:35.816Z,72.06
2016-09-04T11:11:36.617Z,72.34
2016-09-04T11:12:35.777Z,72.92
2016-09-04T11:13:35.769Z,73.21
2016-09-04T11:14:35.771Z,72.92
2016-09-04T11:15:35.780Z,73.02
2016-09-04T11:16:35.771Z,73.41
2016-09-04T11:17:35.782Z,73.41
2016-09-04T11:18:35.772Z,73.41
2016-09-04T11:19:35.774Z,73.69
2016-09-04T11:20:35.777Z,73.5
2016-09-04T11:21:35.782Z,73.31
2016-09-04T11:22:35.782Z,73.15
2016-09-04T11:23:35.796Z,73.44
2016-09-04T11:24:36.282Z,73.15
2016-09-04T11:25:35.785Z,73.54
2016-09-04T11:26:35.783Z,73.54
2016-09-04T11:27:35.789Z,73.15
2016-09-04T11:28:35.799Z,72.8
2016-09-04T11:29:35.939Z,72.71
2016-09-04T11:30:35.806Z,72.52
2016-09-04T11:31:35.791Z,72.42
2016-09-04T11:32:35.807Z,72.03
2016-09-04T11:33:36.094Z,72.42
2016-09-04T11:34:36.901Z,72.03
2016-09-04T11:35:50.767Z,72.13
2016-09-04T11:36:36.010Z,71.74
2016-09-04T11:37:35.804Z,71.58
2016-09-04T11:38:35.803Z,71
2016-09-04T11:39:35.824Z,71.3
2016-09-04T11:40:35.814Z,70.52
2016-09-04T11:41:35.810Z,70.42
2016-09-04T11:42:35.812Z,69.88
2016-09-04T11:43:35.813Z,69.49
2016-09-04T11:44:35.822Z,69.59
2016-09-04T11:45:35.821Z,69.59
2016-09-04T11:46:35.832Z,69.2
2016-09-04T11:47:35.829Z,68.82
2016-09-04T11:48:35.826Z,68.66
2016-09-04T11:49:35.840Z,68.56
2016-09-04T11:50:35.844Z,68.46
2016-09-04T11:51:35.852Z,68.46
2016-09-04T11:52:35.838Z,68.27
2016-09-04T11:53:35.841Z,68.33
2016-09-04T11:54:35.841Z,68.27
2016-09-04T11:55:35.845Z,67.98
2016-09-04T11:56:35.864Z,67.79
2016-09-04T11:57:35.850Z,67.59
2016-09-04T11:58:35.876Z,67.49
2016-09-04T11:59:35.854Z,66.63
2016-09-04T12:00:35.863Z,66.27
2016-09-04T12:01:35.879Z,66.37
2016-09-04T12:02:35.869Z,66.37
2016-09-04T12:03:35.873Z,66.47
2016-09-04T12:04:35.878Z,65.53
2016-09-04T12:05:35.872Z,65.98
2016-09-04T12:06:35.890Z,65.34
2016-09-04T12:07:35.879Z,65.24
2016-09-04T12:08:35.888Z,65.14
2016-09-04T12:09:35.887Z,64.66
2016-09-04T12:10:35.889Z,64.85
2016-09-04T12:11:35.911Z,65.34
2016-09-04T12:12:35.909Z,64.95
2016-09-04T12:13:35.899Z,65.14
2016-09-04T12:14:35.906Z,65.3
2016-09-04T12:15:35.909Z,65.4
2016-09-04T12:16:35.914Z,65.4
2016-09-04T12:17:35.915Z,65.59
2016-09-04T12:18:36.181Z,65.4
2016-09-04T12:19:35.932Z,65.75
2016-09-04T12:20:36.054Z,65.66
2016-09-04T12:21:36.004Z,65.56
2016-09-04T12:22:35.928Z,65.85
2016-09-04T12:23:35.943Z,65.95
2016-09-04T12:24:35.951Z,66.33
2016-09-04T12:25:37.491Z,66.14
2016-09-04T12:26:35.958Z,66.3
2016-09-04T12:27:37.345Z,66.59
2016-09-04T12:28:36.578Z,66.4
2016-09-04T12:29:35.949Z,66.5
2016-09-04T12:30:35.953Z,66.59
2016-09-04T12:31:35.960Z,66.66
2016-09-04T12:32:35.960Z,67.43
2016-09-04T12:33:35.975Z,67.52
2016-09-04T12:34:35.981Z,66.75
2016-09-04T12:35:35.983Z,67.43
2016-09-04T12:36:35.984Z,66.85
2016-09-04T12:37:35.970Z,66.56
2016-09-04T12:38:35.974Z,66.46
2016-09-04T12:39:35.999Z,66.85
2016-09-04T12:40:35.983Z,66.94
2016-09-04T12:41:35.998Z,66.85
2016-09-04T12:42:36.139Z,67.43
2016-09-04T12:43:36.243Z,67.24
2016-09-04T12:44:35.988Z,67.14
2016-09-04T12:45:35.994Z,68.01
2016-09-04T12:46:36.295Z,67.62
2016-09-04T12:47:36.103Z,67.69
2016-09-04T12:48:36.018Z,68.17
2016-09-04T12:49:36.002Z,68.36
2016-09-04T12:50:36.015Z,68.07
2016-09-04T12:51:50.925Z,67.78
2016-09-04T12:52:36.471Z,67.69
2016-09-04T12:53:36.878Z,68.07
2016-09-04T12:54:36.611Z,68.07
2016-09-04T12:55:36.117Z,67.97
2016-09-04T12:56:36.422Z,68.17
2016-09-04T12:57:36.266Z,67.97
2016-09-04T12:58:36.037Z,67.88
2016-09-04T12:59:36.024Z,67.49